createdAt,value
2023-05-08T00:01:27.699Z,6.72
2023-05-08T00:03:30.475Z,6.97
2023-05-08T00:05:33.179Z,6.60
2023-05-08T00:07:38.614Z,6.82
2023-05-08T00:09:41.182Z,6.32
2023-05-08T00:11:43.873Z,6.75
2023-05-08T00:13:46.446Z,6.55
2023-05-08T00:15:49.171Z,6.88
2023-05-08T00:17:51.791Z,6.78
2023-05-08T00:19:54.506Z,7.55
2023-05-08T00:21:57.108Z,7.05
2023-05-08T00:24:01.040Z,7.53
2023-05-08T00:26:03.611Z,7.70
2023-05-08T00:28:06.161Z,9.38
2023-05-08T00:30:09.930Z,9.32
2023-05-08T00:32:12.618Z,10.23
2023-05-08T00:34:16.886Z,9.98
2023-05-08T00:36:19.510Z,10.55
2023-05-08T00:38:22.056Z,10.27
2023-05-08T00:40:26.307Z,9.95
2023-05-08T00:42:28.946Z,9.80
2023-05-08T00:44:31.493Z,9.88
2023-05-08T00:46:34.249Z,10.32
2023-05-08T00:48:37.577Z,10.77
2023-05-08T00:50:40.247Z,11.40
2023-05-08T00:52:44.041Z,11.13
2023-05-08T00:54:47.422Z,12.30
2023-05-08T00:56:53.158Z,9.43
2023-05-08T00:58:55.919Z,9.50
2023-05-08T01:00:59.440Z,8.52
2023-05-08T01:03:02.346Z,9.32
2023-05-08T01:05:05.482Z,9.50
2023-05-08T01:07:08.057Z,9.23
2023-05-08T01:09:11.348Z,9.93
2023-05-08T01:11:18.942Z,11.48
2023-05-08T01:13:33.400Z,11.60
2023-05-08T01:15:42.281Z,10.30
2023-05-08T01:18:01.218Z,10.27
2023-05-08T01:20:20.323Z,11.38
2023-05-08T01:22:55.010Z,11.25
2023-05-08T01:25:35.380Z,10.05
2023-05-08T01:28:10.000Z,9.82
2023-05-08T01:30:43.113Z,10.40
2023-05-08T01:32:52.017Z,10.23
2023-05-08T01:35:04.900Z,11.45
2023-05-08T01:37:12.093Z,11.48
2023-05-08T01:39:20.001Z,12.00
2023-05-08T01:41:28.381Z,11.55
2023-05-08T01:43:42.267Z,11.75
2023-05-08T01:45:47.939Z,12.77
2023-05-08T01:48:01.295Z,12.82
2023-05-08T01:50:08.864Z,13.23
2023-05-08T01:52:18.598Z,13.95
2023-05-08T01:54:25.302Z,13.68
2023-05-08T01:56:30.595Z,14.07
2023-05-08T01:58:35.996Z,13.73
2023-05-08T02:00:40.527Z,14.18
2023-05-08T02:02:43.785Z,13.40
2023-05-08T02:04:49.443Z,13.60
2023-05-08T02:06:53.162Z,14.35
2023-05-08T02:08:57.709Z,13.65
2023-05-08T02:11:01.902Z,14.05
2023-05-08T02:13:07.371Z,14.45
2023-05-08T02:15:13.583Z,13.63
2023-05-08T02:17:18.179Z,12.35
2023-05-08T02:19:24.411Z,13.68
2023-05-08T02:21:29.628Z,13.95
2023-05-08T02:23:34.019Z,14.52
2023-05-08T02:25:37.427Z,13.25
2023-05-08T02:27:43.165Z,13.90
2023-05-08T02:29:45.800Z,13.57
2023-05-08T02:31:49.575Z,14.13
2023-05-08T02:33:53.667Z,13.40
2023-05-08T02:35:58.511Z,12.75
2023-05-08T02:38:03.687Z,14.68
2023-05-08T02:40:09.686Z,13.85
2023-05-08T02:42:12.602Z,13.35
2023-05-08T02:44:15.509Z,13.38
2023-05-08T02:46:22.272Z,13.80
2023-05-08T02:48:34.154Z,13.35
2023-05-08T02:50:42.971Z,13.05
2023-05-08T02:52:49.188Z,13.02
2023-05-08T02:55:00.071Z,14.88
2023-05-08T02:57:09.312Z,13.73
2023-05-08T02:59:18.534Z,13.60
2023-05-08T03:01:27.128Z,14.20
2023-05-08T03:03:37.542Z,14.75
2023-05-08T03:05:44.092Z,16.70
2023-05-08T03:07:51.005Z,16.73
2023-05-08T03:10:03.040Z,16.45
2023-05-08T03:12:10.892Z,17.33
2023-05-08T03:14:16.923Z,19.40
2023-05-08T03:16:23.050Z,18.50
2023-05-08T03:18:31.832Z,18.85
2023-05-08T03:20:38.422Z,17.95
2023-05-08T03:22:42.887Z,19.45
2023-05-08T03:24:47.714Z,17.25
2023-05-08T03:26:52.349Z,18.90
2023-05-08T03:28:56.217Z,18.77
2023-05-08T03:31:00.483Z,19.67
2023-05-08T03:33:05.382Z,19.42
2023-05-08T03:35:10.967Z,18.90
2023-05-08T03:37:13.751Z,17.85
2023-05-08T03:39:16.568Z,17.73
2023-05-08T03:41:19.310Z,19.33
2023-05-08T03:43:24.073Z,17.83
2023-05-08T03:45:27.667Z,18.88
2023-05-08T03:47:30.556Z,19.10
2023-05-08T03:49:34.630Z,18.45
2023-05-08T03:51:39.715Z,18.77
2023-05-08T03:53:42.367Z,18.92
2023-05-08T03:55:44.939Z,17.77
2023-05-08T03:57:59.025Z,18.60
2023-05-08T04:00:10.810Z,18.40
2023-05-08T04:02:26.837Z,18.55
2023-05-08T04:04:39.630Z,20.20
2023-05-08T04:06:50.545Z,19.00
2023-05-08T04:08:59.122Z,19.23
2023-05-08T04:11:10.773Z,19.00
2023-05-08T04:13:15.689Z,18.48
2023-05-08T04:15:23.698Z,17.33
2023-05-08T04:17:40.316Z,16.75
2023-05-08T04:19:47.228Z,15.15
2023-05-08T04:21:51.615Z,14.63
2023-05-08T04:23:59.387Z,15.02
2023-05-08T04:26:05.590Z,16.10
2023-05-08T04:28:09.342Z,16.67
2023-05-08T04:30:12.691Z,19.13
2023-05-08T04:32:17.408Z,18.98
2023-05-08T04:34:20.227Z,18.75
2023-05-08T04:36:23.754Z,18.98
2023-05-08T04:38:26.316Z,18.42
2023-05-08T04:40:28.935Z,18.92
2023-05-08T04:42:31.533Z,18.48
2023-05-08T04:44:34.107Z,19.40
2023-05-08T04:46:36.978Z,18.65
2023-05-08T04:48:40.943Z,18.88
2023-05-08T04:50:43.495Z,17.15
2023-05-08T04:52:46.041Z,17.65
2023-05-08T04:54:48.600Z,18.70
2023-05-08T04:56:51.325Z,19.73
2023-05-08T04:58:54.048Z,19.02
2023-05-08T05:00:57.829Z,18.70
2023-05-08T05:03:00.412Z,20.05
2023-05-08T05:05:04.504Z,18.38
2023-05-08T05:07:07.227Z,20.25
2023-05-08T05:09:10.417Z,18.10
2023-05-08T05:11:13.049Z,19.52
2023-05-08T05:13:15.647Z,18.08
2023-05-08T05:15:18.460Z,19.92
2023-05-08T05:17:21.009Z,19.13
2023-05-08T05:19:23.662Z,20.55
2023-05-08T05:21:28.139Z,18.77
2023-05-08T05:23:30.846Z,19.40
2023-05-08T05:25:33.398Z,18.00
2023-05-08T05:27:36.653Z,19.10
2023-05-08T05:29:39.215Z,19.85
2023-05-08T05:31:42.453Z,16.85
2023-05-08T05:33:45.632Z,19.20
2023-05-08T05:35:48.186Z,17.90
2023-05-08T05:37:52.282Z,18.77
2023-05-08T05:39:54.815Z,18.20
2023-05-08T05:41:57.345Z,18.83
2023-05-08T05:43:59.931Z,19.63
2023-05-08T05:46:06.027Z,19.00
2023-05-08T05:48:08.826Z,18.90
2023-05-08T05:50:12.283Z,19.05
2023-05-08T05:52:15.240Z,18.35
2023-05-08T05:54:19.185Z,18.95
2023-05-08T05:56:23.205Z,18.75
2023-05-08T05:58:25.780Z,19.60
2023-05-08T06:00:28.666Z,19.60
2023-05-08T06:02:31.321Z,18.65
2023-05-08T06:04:34.152Z,20.40
2023-05-08T06:06:36.775Z,19.52
2023-05-08T06:08:39.376Z,19.10
2023-05-08T06:10:43.279Z,19.20
2023-05-08T06:12:46.044Z,19.88
2023-05-08T06:14:48.689Z,18.67
2023-05-08T06:16:51.499Z,18.30
2023-05-08T06:18:54.139Z,19.23
2023-05-08T06:20:58.420Z,17.75
2023-05-08T06:23:00.973Z,18.88
2023-05-08T06:25:03.729Z,18.17
2023-05-08T06:27:07.633Z,19.15
2023-05-08T06:29:10.211Z,19.08
2023-05-08T06:31:12.821Z,18.48
2023-05-08T06:33:15.459Z,18.40
2023-05-08T06:35:19.360Z,18.83
2023-05-08T06:37:22.024Z,18.70
2023-05-08T06:39:24.845Z,20.00
2023-05-08T06:41:27.584Z,20.65
2023-05-08T06:43:31.760Z,19.25
2023-05-08T06:45:34.306Z,19.13
2023-05-08T06:47:36.970Z,19.17
2023-05-08T06:49:39.668Z,20.67
2023-05-08T06:51:42.218Z,20.55
2023-05-08T06:53:44.771Z,21.58
2023-05-08T06:55:47.349Z,21.40
2023-05-08T06:57:50.161Z,20.92
2023-05-08T06:59:56.031Z,21.77
2023-05-08T07:01:59.149Z,20.98
2023-05-08T07:04:01.777Z,20.77
2023-05-08T07:06:04.402Z,22.20
2023-05-08T07:08:06.968Z,22.77
2023-05-08T07:10:10.310Z,22.05
2023-05-08T07:12:12.870Z,22.58
2023-05-08T07:14:15.600Z,24.08
2023-05-08T07:16:19.674Z,23.02
2023-05-08T07:18:22.348Z,21.80
2023-05-08T07:20:25.230Z,22.95
2023-05-08T07:22:27.896Z,23.42
2023-05-08T07:24:30.525Z,22.92
2023-05-08T07:26:33.127Z,22.90
2023-05-08T07:28:35.740Z,21.67
2023-05-08T07:30:38.362Z,22.45
2023-05-08T07:32:42.378Z,22.25
2023-05-08T07:34:45.139Z,22.85
2023-05-08T07:36:47.692Z,22.33
2023-05-08T07:38:50.274Z,22.15
2023-05-08T07:40:57.055Z,20.85
2023-05-08T07:42:59.781Z,21.95
2023-05-08T07:45:05.493Z,21.70
2023-05-08T07:47:08.109Z,21.65
2023-05-08T07:49:12.073Z,21.23
2023-05-08T07:51:14.641Z,21.35
2023-05-08T07:53:17.315Z,20.73
2023-05-08T07:55:21.494Z,21.83
2023-05-08T07:57:24.076Z,20.63
2023-05-08T07:59:26.631Z,21.58
2023-05-08T08:01:29.218Z,19.98
2023-05-08T08:03:31.860Z,19.50
2023-05-08T08:05:36.054Z,20.83
2023-05-08T08:07:38.640Z,19.98
2023-05-08T08:09:41.219Z,19.33
2023-05-08T08:11:43.787Z,18.92
2023-05-08T08:13:46.475Z,17.55
2023-05-08T08:15:49.054Z,17.75
2023-05-08T08:17:51.635Z,16.42
2023-05-08T08:19:54.438Z,15.32
2023-05-08T08:21:58.332Z,15.23
2023-05-08T08:24:01.342Z,15.27
2023-05-08T08:26:03.946Z,14.18
2023-05-08T08:28:06.678Z,14.98
2023-05-08T08:30:17.619Z,14.75
2023-05-08T08:34:23.624Z,14.40
2023-05-08T08:36:26.338Z,15.27
2023-05-08T08:38:30.769Z,14.40
2023-05-08T08:40:33.579Z,15.50
2023-05-08T08:42:36.208Z,13.57
2023-05-08T08:44:40.047Z,14.07
2023-05-08T08:46:50.918Z,14.45
2023-05-08T08:48:55.895Z,13.23
2023-05-08T08:51:03.784Z,13.00
2023-05-08T08:53:11.369Z,13.48
2023-05-08T08:55:17.464Z,11.90
2023-05-08T08:57:21.171Z,12.43
2023-05-08T08:59:26.111Z,11.77
2023-05-08T09:01:31.016Z,11.60
2023-05-08T09:03:33.775Z,10.82
2023-05-08T09:05:37.047Z,10.48
2023-05-08T09:07:41.045Z,10.23
2023-05-08T09:09:45.912Z,9.02
2023-05-08T09:11:49.854Z,9.30
2023-05-08T09:13:52.717Z,9.38
2023-05-08T09:15:55.386Z,9.35
2023-05-08T09:17:57.985Z,9.00
2023-05-08T09:20:01.146Z,7.65
2023-05-08T09:22:06.758Z,8.02
2023-05-08T09:24:09.798Z,7.78
2023-05-08T09:26:28.035Z,7.60
2023-05-08T09:28:31.917Z,7.55
2023-05-08T09:30:49.703Z,7.18
2023-05-08T09:33:02.897Z,6.82
2023-05-08T09:35:06.934Z,5.82
2023-05-08T09:37:13.612Z,5.78
2023-05-08T09:39:23.404Z,6.25
2023-05-08T09:41:26.688Z,5.65
2023-05-08T09:43:29.284Z,6.47
2023-05-08T09:45:35.353Z,6.00
2023-05-08T09:47:39.514Z,5.50
2023-05-08T09:49:57.706Z,4.93
2023-05-08T09:52:00.342Z,5.93
2023-05-08T09:54:05.812Z,6.03
2023-05-08T09:56:08.588Z,6.97
2023-05-08T09:58:11.469Z,7.43
2023-05-08T10:00:15.419Z,9.23
2023-05-08T10:02:21.045Z,8.52
2023-05-08T10:04:33.328Z,9.13
2023-05-08T10:06:36.491Z,8.68
2023-05-08T10:08:39.155Z,8.63
2023-05-08T10:10:41.707Z,8.70
2023-05-08T10:12:44.663Z,9.70
2023-05-08T10:14:47.284Z,9.75
2023-05-08T10:16:53.874Z,9.35
2023-05-08T10:19:05.761Z,9.13
2023-05-08T10:21:09.805Z,9.27
2023-05-08T10:23:17.527Z,9.75
2023-05-08T10:25:23.265Z,10.05
2023-05-08T10:27:34.408Z,10.27
2023-05-08T10:29:43.437Z,8.70
2023-05-08T10:31:47.782Z,8.68
2023-05-08T10:33:52.250Z,8.20
2023-05-08T10:35:56.392Z,9.13
2023-05-08T10:38:00.280Z,7.25
2023-05-08T10:40:05.193Z,8.02
2023-05-08T10:42:08.241Z,8.82
2023-05-08T10:44:11.392Z,9.10
2023-05-08T10:46:22.857Z,8.32
2023-05-08T10:48:34.100Z,7.43
2023-05-08T10:50:45.703Z,8.05
2023-05-08T10:52:56.857Z,8.30
2023-05-08T10:55:17.636Z,8.90
2023-05-08T10:57:20.377Z,10.05
2023-05-08T10:59:23.803Z,9.48
2023-05-08T11:01:27.411Z,9.05
2023-05-08T11:03:33.108Z,10.02
2023-05-08T11:05:47.381Z,9.88
2023-05-08T11:07:58.367Z,9.13
2023-05-08T11:10:13.852Z,9.55
2023-05-08T11:12:26.609Z,10.00
2023-05-08T11:14:30.783Z,9.32
2023-05-08T11:17:05.164Z,9.50
2023-05-08T11:19:17.781Z,8.98
2023-05-08T11:21:22.519Z,9.00
2023-05-08T11:23:27.975Z,9.30
2023-05-08T11:25:43.610Z,9.43
2023-05-08T11:28:15.687Z,9.82
2023-05-08T11:32:26.261Z,10.95
2023-05-08T11:34:47.514Z,10.55
2023-05-08T11:37:02.474Z,10.35
2023-05-08T11:39:12.730Z,10.20
2023-05-08T11:41:22.660Z,10.88
2023-05-08T11:44:01.574Z,10.90
2023-05-08T11:46:05.795Z,10.73
2023-05-08T11:48:10.096Z,9.77
2023-05-08T11:50:14.726Z,9.68
2023-05-08T11:52:19.661Z,10.02
2023-05-08T11:54:24.121Z,9.65
2023-05-08T11:56:26.892Z,10.13
2023-05-08T11:58:29.491Z,8.57
2023-05-08T12:00:32.126Z,9.00
2023-05-08T12:02:39.446Z,9.18
2023-05-08T12:04:46.652Z,9.05
2023-05-08T12:06:51.448Z,9.43
2023-05-08T12:08:54.143Z,9.80
2023-05-08T12:10:58.855Z,14.02
2023-05-08T12:13:01.473Z,12.25
2023-05-08T12:15:07.713Z,10.65
2023-05-08T12:17:11.209Z,12.05
2023-05-08T12:19:14.795Z,11.13
2023-05-08T12:21:17.404Z,12.05
2023-05-08T12:23:20.420Z,12.68
2023-05-08T12:25:23.000Z,12.57
2023-05-08T12:27:27.966Z,12.40
2023-05-08T12:29:30.721Z,13.23
2023-05-08T12:31:33.700Z,13.45
2023-05-08T12:33:36.370Z,14.93
2023-05-08T12:35:40.133Z,13.85
2023-05-08T12:37:42.881Z,15.45
2023-05-08T12:39:45.744Z,16.58
2023-05-08T12:41:49.519Z,17.10
2023-05-08T12:43:53.457Z,17.70
2023-05-08T12:45:56.026Z,18.15
2023-05-08T12:48:03.923Z,19.10
2023-05-08T12:50:12.270Z,18.60
2023-05-08T12:52:15.145Z,18.65
2023-05-08T12:54:17.781Z,17.80
2023-05-08T12:56:23.100Z,18.48
2023-05-08T12:58:27.134Z,17.80
2023-05-08T13:00:38.807Z,18.00
2023-05-08T13:02:49.315Z,16.92
2023-05-08T13:04:57.886Z,16.20
2023-05-08T13:07:00.659Z,15.18
2023-05-08T13:09:03.267Z,16.75
2023-05-08T13:11:07.234Z,17.98
2023-05-08T13:13:09.848Z,18.58
2023-05-08T13:15:12.839Z,16.48
2023-05-08T13:17:19.739Z,17.98
2023-05-08T13:19:22.286Z,18.20
2023-05-08T13:21:27.323Z,16.95
2023-05-08T13:23:30.477Z,17.80
2023-05-08T13:25:33.552Z,18.45
2023-05-08T13:27:36.086Z,19.35
2023-05-08T13:29:38.639Z,18.52
2023-05-08T13:31:41.223Z,18.10
2023-05-08T13:33:45.272Z,18.52
2023-05-08T13:35:47.905Z,19.92
2023-05-08T13:37:50.862Z,17.77
2023-05-08T13:39:53.409Z,18.10
2023-05-08T13:41:56.049Z,16.10
2023-05-08T13:43:58.600Z,16.27
2023-05-08T13:46:01.207Z,15.07
2023-05-08T13:48:04.006Z,14.63
2023-05-08T13:50:09.852Z,14.75
2023-05-08T13:52:12.449Z,13.48
2023-05-08T13:54:15.013Z,12.82
2023-05-08T13:56:17.613Z,12.55
2023-05-08T13:58:20.223Z,11.98
2023-05-08T14:00:22.761Z,11.15
2023-05-08T14:02:25.474Z,9.63
2023-05-08T14:04:28.141Z,10.15
2023-05-08T14:06:32.538Z,8.75
2023-05-08T14:08:40.090Z,9.07
2023-05-08T14:10:47.284Z,9.20
2023-05-08T14:12:49.898Z,11.23
2023-05-08T14:14:52.482Z,12.38
2023-05-08T14:16:55.042Z,8.00
2023-05-08T14:18:57.615Z,5.97
2023-05-08T14:21:00.161Z,7.53
2023-05-08T14:23:04.051Z,6.90
2023-05-08T14:25:07.994Z,6.70
2023-05-08T14:27:10.651Z,6.00
2023-05-08T14:29:13.195Z,6.30
2023-05-08T14:31:15.888Z,6.90
2023-05-08T14:33:19.461Z,6.57
2023-05-08T14:35:22.199Z,6.82
2023-05-08T14:37:24.755Z,7.63
2023-05-08T14:39:28.667Z,6.20
2023-05-08T14:41:32.153Z,6.43
2023-05-08T14:43:34.686Z,6.60
2023-05-08T14:45:37.332Z,6.10
2023-05-08T14:47:39.919Z,5.60
2023-05-08T14:49:42.498Z,5.43
2023-05-08T14:51:45.019Z,5.78
2023-05-08T14:53:47.800Z,5.35
2023-05-08T14:55:52.128Z,5.93
2023-05-08T14:57:54.813Z,5.93
2023-05-08T14:59:57.379Z,5.05
2023-05-08T15:02:00.094Z,6.30
2023-05-08T15:04:02.848Z,5.10
2023-05-08T15:06:06.122Z,5.30
2023-05-08T15:08:09.674Z,5.63
2023-05-08T15:10:12.553Z,5.20
2023-05-08T15:12:16.460Z,5.22
2023-05-08T15:14:19.009Z,5.18
2023-05-08T15:16:21.580Z,5.57
2023-05-08T15:18:24.591Z,5.35
2023-05-08T15:20:27.202Z,5.05
2023-05-08T15:22:29.741Z,5.63
2023-05-08T15:24:32.337Z,5.80
2023-05-08T15:26:34.885Z,5.45
2023-05-08T15:28:41.231Z,5.57
2023-05-08T15:30:46.518Z,5.40
2023-05-08T15:32:49.444Z,5.90
2023-05-08T15:34:52.161Z,5.53
2023-05-08T15:36:54.702Z,5.82
2023-05-08T15:38:57.225Z,5.47
2023-05-08T15:40:59.766Z,5.75
2023-05-08T15:43:02.340Z,6.07
2023-05-08T15:45:07.185Z,6.07
2023-05-08T15:47:09.781Z,5.25
2023-05-08T15:49:12.304Z,6.20
2023-05-08T15:51:14.849Z,6.13
2023-05-08T15:53:17.474Z,5.82
2023-05-08T15:55:21.402Z,6.32
2023-05-08T15:57:26.955Z,5.43
2023-05-08T15:59:29.497Z,5.93
2023-05-08T16:01:33.463Z,5.80
2023-05-08T16:03:36.145Z,6.20
2023-05-08T16:05:39.469Z,6.18
2023-05-08T16:07:42.104Z,6.80
2023-05-08T16:09:44.686Z,5.97
2023-05-08T16:11:48.885Z,6.47
2023-05-08T16:13:51.535Z,6.20
2023-05-08T16:15:56.361Z,6.40
2023-05-08T16:18:00.330Z,5.68
2023-05-08T16:20:03.789Z,6.28
2023-05-08T16:22:06.864Z,6.20
2023-05-08T16:24:09.487Z,7.20
2023-05-08T16:26:13.106Z,6.28
2023-05-08T16:28:15.986Z,7.38
2023-05-08T16:30:19.215Z,6.95
2023-05-08T16:32:21.857Z,8.05
2023-05-08T16:34:25.804Z,8.48
2023-05-08T16:36:28.433Z,8.40
2023-05-08T16:38:31.049Z,8.65
2023-05-08T16:40:33.637Z,8.48
2023-05-08T16:42:36.992Z,9.27
2023-05-08T16:44:39.594Z,10.15
2023-05-08T16:46:42.190Z,9.43
2023-05-08T16:48:44.987Z,9.35
2023-05-08T16:50:48.891Z,9.27
2023-05-08T16:52:51.478Z,9.57
2023-05-08T16:54:54.216Z,9.57
2023-05-08T16:56:56.775Z,9.38
2023-05-08T16:59:01.356Z,9.85
2023-05-08T17:01:04.405Z,8.93
2023-05-08T17:03:06.998Z,9.02
2023-05-08T17:05:10.279Z,10.05
2023-05-08T17:07:14.299Z,10.55
2023-05-08T17:09:18.381Z,10.65
2023-05-08T17:11:21.754Z,10.52
2023-05-08T17:13:24.456Z,11.23
2023-05-08T17:15:27.328Z,10.68
2023-05-08T17:17:29.912Z,11.07
2023-05-08T17:19:32.506Z,10.90
2023-05-08T17:21:35.168Z,10.23
2023-05-08T17:23:39.108Z,10.98
2023-05-08T17:25:41.674Z,10.73
2023-05-08T17:27:44.246Z,10.27
2023-05-08T17:29:46.865Z,10.15
2023-05-08T17:31:49.405Z,11.05
2023-05-08T17:33:52.005Z,11.30
2023-05-08T17:35:54.873Z,10.50
2023-05-08T17:37:57.442Z,10.20
2023-05-08T17:40:01.372Z,11.90
2023-05-08T17:42:03.993Z,11.98
2023-05-08T17:44:07.023Z,12.48
2023-05-08T17:46:09.788Z,11.55
2023-05-08T17:48:12.523Z,11.77
2023-05-08T17:50:15.183Z,13.10
2023-05-08T17:52:17.876Z,12.68
2023-05-08T17:54:20.478Z,12.02
2023-05-08T17:56:24.428Z,11.88
2023-05-08T17:58:27.010Z,12.18
2023-05-08T18:00:29.588Z,13.82
2023-05-08T18:02:32.908Z,13.82
2023-05-08T18:04:35.543Z,14.25
2023-05-08T18:06:38.156Z,15.88
2023-05-08T18:08:42.127Z,15.00
2023-05-08T18:10:45.796Z,14.75
2023-05-08T18:12:50.800Z,15.45
2023-05-08T18:14:53.425Z,15.70
2023-05-08T18:16:56.019Z,15.85
2023-05-08T18:18:58.600Z,14.80
2023-05-08T18:21:01.221Z,15.63
2023-05-08T18:23:03.968Z,15.52
2023-05-08T18:25:07.326Z,13.98
2023-05-08T18:27:09.899Z,14.73
2023-05-08T18:29:13.857Z,15.05
2023-05-08T18:31:16.618Z,15.32
2023-05-08T18:33:19.354Z,14.38
2023-05-08T18:35:22.466Z,15.77
2023-05-08T18:37:25.780Z,14.95
2023-05-08T18:39:28.329Z,15.07
2023-05-08T18:41:30.907Z,14.70
2023-05-08T18:43:33.458Z,15.10
2023-05-08T18:45:40.643Z,14.20
2023-05-08T18:47:43.277Z,15.57
2023-05-08T18:49:45.832Z,14.48
2023-05-08T18:51:48.403Z,14.10
2023-05-08T18:53:51.038Z,15.13
2023-05-08T18:55:53.877Z,15.05
2023-05-08T18:57:56.484Z,15.52
2023-05-08T18:59:59.074Z,15.05
2023-05-08T19:02:02.976Z,14.45
2023-05-08T19:04:05.881Z,15.60
2023-05-08T19:06:08.541Z,14.38
2023-05-08T19:08:11.106Z,14.32
2023-05-08T19:10:13.995Z,15.43
2023-05-08T19:12:16.806Z,14.02
2023-05-08T19:14:19.497Z,13.98
2023-05-08T19:16:22.092Z,13.93
2023-05-08T19:18:26.024Z,13.63
2023-05-08T19:20:28.667Z,13.82
2023-05-08T19:22:35.233Z,14.45
2023-05-08T19:24:38.757Z,13.38
2023-05-08T19:26:41.538Z,13.23
2023-05-08T19:28:44.091Z,13.77
2023-05-08T19:30:46.929Z,14.75
2023-05-08T19:32:50.461Z,13.40
2023-05-08T19:34:57.270Z,14.68
2023-05-08T19:36:59.853Z,13.45
2023-05-08T19:39:02.525Z,13.65
2023-05-08T19:41:05.103Z,13.35
2023-05-08T19:43:07.692Z,13.13
2023-05-08T19:45:11.833Z,13.50
2023-05-08T19:47:15.003Z,13.00
2023-05-08T19:49:17.634Z,13.60
2023-05-08T19:51:21.612Z,13.25
2023-05-08T19:53:24.427Z,13.82
2023-05-08T19:55:27.740Z,12.48
2023-05-08T19:57:30.347Z,13.02
2023-05-08T19:59:32.891Z,12.45
2023-05-08T20:01:35.509Z,12.43
2023-05-08T20:03:38.153Z,13.27
2023-05-08T20:05:40.871Z,13.20
2023-05-08T20:07:44.821Z,12.52
2023-05-08T20:09:47.362Z,12.98
2023-05-08T20:11:49.915Z,13.50
2023-05-08T20:13:52.517Z,12.60
2023-05-08T20:15:55.132Z,12.75
2023-05-08T20:17:59.211Z,13.25
2023-05-08T20:20:01.898Z,14.02
2023-05-08T20:22:04.502Z,13.20
2023-05-08T20:24:08.639Z,12.95
2023-05-08T20:26:11.241Z,12.15
2023-05-08T20:28:13.842Z,11.95
2023-05-08T20:30:16.586Z,13.07
2023-05-08T20:32:20.184Z,12.13
2023-05-08T20:34:22.785Z,12.48
2023-05-08T20:36:27.585Z,12.10
2023-05-08T20:38:30.191Z,13.38
2023-05-08T20:40:34.662Z,14.18
2023-05-08T20:42:37.903Z,14.18
2023-05-08T20:44:40.507Z,12.73
2023-05-08T20:46:43.131Z,14.85
2023-05-08T20:48:45.745Z,15.20
2023-05-08T20:50:48.958Z,15.20
2023-05-08T20:52:51.783Z,15.65
2023-05-08T20:54:54.411Z,14.77
2023-05-08T20:56:58.402Z,15.48
2023-05-08T20:59:00.964Z,15.00
2023-05-08T21:01:03.724Z,15.50
2023-05-08T21:03:06.381Z,16.08
2023-05-08T21:05:09.683Z,15.45
2023-05-08T21:07:12.401Z,17.02
2023-05-08T21:09:14.962Z,14.57
2023-05-08T21:11:17.547Z,13.90
2023-05-08T21:13:21.604Z,15.10
2023-05-08T21:15:24.227Z,13.95
2023-05-08T21:17:26.965Z,14.07
2023-05-08T21:19:31.060Z,15.18
2023-05-08T21:21:33.614Z,15.10
2023-05-08T21:23:36.237Z,13.95
2023-05-08T21:25:38.807Z,14.68
2023-05-08T21:27:41.409Z,15.40
2023-05-08T21:29:45.334Z,16.15
2023-05-08T21:31:47.944Z,17.67
2023-05-08T21:33:51.910Z,18.08
2023-05-08T21:35:54.752Z,16.05
2023-05-08T21:37:57.366Z,18.05
2023-05-08T21:39:59.922Z,18.02
2023-05-08T21:42:03.162Z,17.73
2023-05-08T21:44:06.624Z,17.52
2023-05-08T21:46:10.623Z,18.92
2023-05-08T21:48:13.248Z,19.55
2023-05-08T21:50:15.833Z,19.23
2023-05-08T21:52:22.058Z,19.08
2023-05-08T21:54:24.781Z,19.30
2023-05-08T21:56:27.430Z,19.65
2023-05-08T21:58:29.993Z,18.85
2023-05-08T22:00:32.597Z,19.50
2023-05-08T22:02:36.625Z,19.08
2023-05-08T22:04:39.204Z,18.83
2023-05-08T22:06:43.194Z,18.52
2023-05-08T22:08:45.983Z,19.40
2023-05-08T22:10:48.665Z,19.50
2023-05-08T22:12:51.253Z,20.35
2023-05-08T22:14:53.871Z,20.65
2023-05-08T22:16:56.407Z,19.30
2023-05-08T22:19:00.329Z,18.65
2023-05-08T22:21:02.917Z,19.80
2023-05-08T22:23:05.771Z,18.38
2023-05-08T22:25:09.326Z,19.52
2023-05-08T22:27:11.895Z,17.70
2023-05-08T22:29:16.519Z,17.67
2023-05-08T22:31:19.407Z,18.10
2023-05-08T22:33:21.986Z,18.13
2023-05-08T22:35:27.839Z,19.10
2023-05-08T22:37:30.503Z,19.10
2023-05-08T22:39:33.095Z,19.13
2023-05-08T22:41:35.772Z,19.67
2023-05-08T22:43:38.377Z,18.13
2023-05-08T22:45:41.323Z,17.83
2023-05-08T22:47:44.286Z,18.25
2023-05-08T22:49:48.012Z,18.40
2023-05-08T22:51:52.032Z,19.83
2023-05-08T22:53:56.138Z,18.67
2023-05-08T22:55:58.723Z,18.55
2023-05-08T22:58:01.420Z,18.90
2023-05-08T23:00:04.271Z,17.77
2023-05-08T23:02:06.904Z,19.00
2023-05-08T23:04:09.534Z,19.17
2023-05-08T23:06:12.135Z,19.20
2023-05-08T23:08:16.036Z,19.30
2023-05-08T23:10:18.879Z,19.65
2023-05-08T23:12:21.611Z,18.60
2023-05-08T23:14:24.232Z,19.02
2023-05-08T23:16:26.836Z,19.02
2023-05-08T23:18:29.403Z,18.02
2023-05-08T23:20:31.998Z,17.73
2023-05-08T23:22:34.564Z,18.05
2023-05-08T23:24:38.635Z,18.92
2023-05-08T23:26:42.220Z,19.15
2023-05-08T23:28:44.882Z,19.55
2023-05-08T23:30:47.448Z,18.90
2023-05-08T23:32:50.164Z,19.27
2023-05-08T23:34:52.741Z,18.70
2023-05-08T23:36:55.643Z,19.98
2023-05-08T23:38:58.253Z,18.55
2023-05-08T23:41:02.228Z,18.33
2023-05-08T23:43:06.091Z,17.75
2023-05-08T23:45:09.590Z,18.85
2023-05-08T23:47:12.409Z,19.95
2023-05-08T23:49:15.026Z,19.40
2023-05-08T23:51:17.815Z,20.20
2023-05-08T23:53:20.699Z,18.45
2023-05-08T23:55:23.339Z,19.95
2023-05-08T23:57:27.262Z,19.05
2023-05-08T23:59:29.839Z,19.35
